sensor_id;sensor_type;location;lat;lon;timestamp;temperature;humidity
79694;DHT22;69165;52.714;13.200;2023-07-09T05:00:30;16.80;99.90
79694;DHT22;69165;52.714;13.200;2023-07-09T05:02:31;16.90;99.90
79694;DHT22;69165;52.714;13.200;2023-07-09T05:04:32;16.90;99.90
79694;DHT22;69165;52.714;13.200;2023-07-09T05:06:34;17.00;99.90
79694;DHT22;69165;52.714;13.200;2023-07-09T05:08:35;17.00;99.90
79694;DHT22;69165;52.714;13.200;2023-07-09T05:10:40;17.10;99.90
79694;DHT22;69165;52.714;13.200;2023-07-09T05:12:46;17.20;99.90
79694;DHT22;69165;52.714;13.200;2023-07-09T05:14:39;17.30;99.90
79694;DHT22;69165;52.714;13.200;2023-07-09T05:16:40;17.30;99.90
79694;DHT22;69165;52.714;13.200;2023-07-09T05:18:42;17.40;99.90
79694;DHT22;69165;52.714;13.200;2023-07-09T05:20:43;17.70;99.90
79694;DHT22;69165;52.714;13.200;2023-07-09T05:22:44;18.30;99.90
79694;DHT22;69165;52.714;13.200;2023-07-09T05:24:46;19.00;99.90
79694;DHT22;69165;52.714;13.200;2023-07-09T05:26:47;19.70;99.90
79694;DHT22;69165;52.714;13.200;2023-07-09T05:28:48;20.40;99.90
79694;DHT22;69165;52.714;13.200;2023-07-09T05:30:49;21.00;99.90
79694;DHT22;69165;52.714;13.200;2023-07-09T05:32:51;21.40;99.90
79694;DHT22;69165;52.714;13.200;2023-07-09T05:34:53;22.00;99.90
79694;DHT22;69165;52.714;13.200;2023-07-09T05:36:54;21.90;99.90
79694;DHT22;69165;52.714;13.200;2023-07-09T05:38:55;22.20;99.90
79694;DHT22;69165;52.714;13.200;2023-07-09T05:41:00;22.70;99.90
79694;DHT22;69165;52.714;13.200;2023-07-09T05:43:00;22.70;99.90
79694;DHT22;69165;52.714;13.200;2023-07-09T05:45:02;22.80;99.90
79694;DHT22;69165;52.714;13.200;2023-07-09T05:47:03;22.70;99.90
79694;DHT22;69165;52.714;13.200;2023-07-09T05:49:05;22.60;99.90
79694;DHT22;69165;52.714;13.200;2023-07-09T05:51:06;22.40;99.90
79694;DHT22;69165;52.714;13.200;2023-07-09T05:53:08;22.30;99.90
79694;DHT22;69165;52.714;13.200;2023-07-09T05:55:09;22.30;99.90
79694;DHT22;69165;52.714;13.200;2023-07-09T05:57:10;22.20;99.90
79694;DHT22;69165;52.714;13.200;2023-07-09T05:59:11;22.00;99.90
79694;DHT22;69165;52.714;13.200;2023-07-09T06:01:13;21.80;99.90
79694;DHT22;69165;52.714;13.200;2023-07-09T06:03:14;21.50;99.90
79694;DHT22;69165;52.714;13.200;2023-07-09T06:05:15;21.40;99.90
79694;DHT22;69165;52.714;13.200;2023-07-09T06:07:16;21.20;99.90
79694;DHT22;69165;52.714;13.200;2023-07-09T06:09:18;21.10;99.90
79694;DHT22;69165;52.714;13.200;2023-07-09T06:11:20;21.00;99.90
79694;DHT22;69165;52.714;13.200;2023-07-09T06:13:21;21.00;99.90
79694;DHT22;69165;52.714;13.200;2023-07-09T06:15:22;20.90;99.90
79694;DHT22;69165;52.714;13.200;2023-07-09T06:17:23;20.90;99.90
79694;DHT22;69165;52.714;13.200;2023-07-09T06:19:25;21.00;99.90
79694;DHT22;69165;52.714;13.200;2023-07-09T06:21:26;21.00;99.90
79694;DHT22;69165;52.714;13.200;2023-07-09T06:23:27;21.00;99.90
79694;DHT22;69165;52.714;13.200;2023-07-09T06:25:28;21.00;99.90
79694;DHT22;69165;52.714;13.200;2023-07-09T06:27:30;21.10;99.90
79694;DHT22;69165;52.714;13.200;2023-07-09T06:29:31;21.10;99.90
79694;DHT22;69165;52.714;13.200;2023-07-09T06:31:32;21.10;99.90
79694;DHT22;69165;52.714;13.200;2023-07-09T06:33:33;21.20;99.90
79694;DHT22;69165;52.714;13.200;2023-07-09T06:35:35;21.30;99.90
79694;DHT22;69165;52.714;13.200;2023-07-09T06:37:36;21.40;99.90
79694;DHT22;69165;52.714;13.200;2023-07-09T06:39:37;21.50;99.90
79694;DHT22;69165;52.714;13.200;2023-07-09T06:41:38;21.60;99.90
79694;DHT22;69165;52.714;13.200;2023-07-09T06:43:40;21.70;99.90
79694;DHT22;69165;52.714;13.200;2023-07-09T06:47:48;22.00;99.90
79694;DHT22;69165;52.714;13.200;2023-07-09T06:49:49;22.00;99.90
79694;DHT22;69165;52.714;13.200;2023-07-09T06:51:50;22.10;99.90
79694;DHT22;69165;52.714;13.200;2023-07-09T06:53:53;22.30;99.90
79694;DHT22;69165;52.714;13.200;2023-07-09T06:55:54;22.30;99.90
79694;DHT22;69165;52.714;13.200;2023-07-09T06:57:56;22.50;99.90
79694;DHT22;69165;52.714;13.200;2023-07-09T06:59:57;22.70;99.90
79694;DHT22;69165;52.714;13.200;2023-07-09T07:01:58;22.90;99.90
79694;DHT22;69165;52.714;13.200;2023-07-09T07:03:59;23.10;99.90
79694;DHT22;69165;52.714;13.200;2023-07-09T07:06:01;23.30;99.90
79694;DHT22;69165;52.714;13.200;2023-07-09T07:08:02;23.50;99.90
79694;DHT22;69165;52.714;13.200;2023-07-09T07:10:03;23.70;99.90
79694;DHT22;69165;52.714;13.200;2023-07-09T07:12:05;23.80;99.90
79694;DHT22;69165;52.714;13.200;2023-07-09T07:14:07;24.10;99.90
79694;DHT22;69165;52.714;13.200;2023-07-09T07:16:10;24.10;99.90
79694;DHT22;69165;52.714;13.200;2023-07-09T07:18:09;24.20;99.90
79694;DHT22;69165;52.714;13.200;2023-07-09T07:20:11;24.30;99.90
79694;DHT22;69165;52.714;13.200;2023-07-09T07:22:12;24.50;99.90
79694;DHT22;69165;52.714;13.200;2023-07-09T07:24:14;24.70;99.90
79694;DHT22;69165;52.714;13.200;2023-07-09T07:26:15;24.70;99.90
79694;DHT22;69165;52.714;13.200;2023-07-09T07:28:17;24.70;99.90
79694;DHT22;69165;52.714;13.200;2023-07-09T07:30:18;24.90;99.90
79694;DHT22;69165;52.714;13.200;2023-07-09T07:32:19;25.10;99.90
79694;DHT22;69165;52.714;13.200;2023-07-09T07:34:20;25.20;99.90
79694;DHT22;69165;52.714;13.200;2023-07-09T07:36:21;25.30;99.90
79694;DHT22;69165;52.714;13.200;2023-07-09T07:38:23;25.30;99.90
79694;DHT22;69165;52.714;13.200;2023-07-09T07:40:24;25.40;99.90
79694;DHT22;69165;52.714;13.200;2023-07-09T07:42:26;25.60;99.90
79694;DHT22;69165;52.714;13.200;2023-07-09T07:44:27;25.60;99.90
79694;DHT22;69165;52.714;13.200;2023-07-09T07:46:28;25.90;99.90
79694;DHT22;69165;52.714;13.200;2023-07-09T07:48:30;26.00;99.90
79694;DHT22;69165;52.714;13.200;2023-07-09T07:50:31;26.10;99.90
79694;DHT22;69165;52.714;13.200;2023-07-09T07:52:33;26.30;99.90
79694;DHT22;69165;52.714;13.200;2023-07-09T07:54:34;26.20;99.90
79694;DHT22;69165;52.714;13.200;2023-07-09T07:56:36;26.40;99.90
79694;DHT22;69165;52.714;13.200;2023-07-09T07:58:38;26.60;99.90
79694;DHT22;69165;52.714;13.200;2023-07-09T08:00:39;26.60;99.90
79694;DHT22;69165;52.714;13.200;2023-07-09T08:02:40;26.70;99.90
79694;DHT22;69165;52.714;13.200;2023-07-09T08:04:41;26.90;99.90
79694;DHT22;69165;52.714;13.200;2023-07-09T08:06:43;27.10;99.80
79694;DHT22;69165;52.714;13.200;2023-07-09T08:08:45;27.10;99.80
79694;DHT22;69165;52.714;13.200;2023-07-09T08:10:46;27.20;99.80
79694;DHT22;69165;52.714;13.200;2023-07-09T08:12:48;27.50;99.70
79694;DHT22;69165;52.714;13.200;2023-07-09T08:14:49;27.40;99.70
79694;DHT22;69165;52.714;13.200;2023-07-09T08:16:50;27.50;99.40
79694;DHT22;69165;52.714;13.200;2023-07-09T08:18:52;27.80;98.40
79694;DHT22;69165;52.714;13.200;2023-07-09T08:20:54;27.80;98.30
79694;DHT22;69165;52.714;13.200;2023-07-09T08:22:55;27.80;99.50
79694;DHT22;69165;52.714;13.200;2023-07-09T08:24:57;27.50;97.60
79694;DHT22;69165;52.714;13.200;2023-07-09T08:26:58;27.50;97.60
79694;DHT22;69165;52.714;13.200;2023-07-09T08:28:59;27.40;98.10
79694;DHT22;69165;52.714;13.200;2023-07-09T08:31:02;27.30;97.60
79694;DHT22;69165;52.714;13.200;2023-07-09T08:33:04;27.40;98.70
79694;DHT22;69165;52.714;13.200;2023-07-09T08:35:05;27.40;98.70
79694;DHT22;69165;52.714;13.200;2023-07-09T08:37:06;27.50;97.40
79694;DHT22;69165;52.714;13.200;2023-07-09T08:39:07;27.50;97.90
79694;DHT22;69165;52.714;13.200;2023-07-09T08:41:16;27.60;98.10
79694;DHT22;69165;52.714;13.200;2023-07-09T08:43:14;27.80;97.80
79694;DHT22;69165;52.714;13.200;2023-07-09T08:45:21;28.20;98.40
79694;DHT22;69165;52.714;13.200;2023-07-09T08:49:30;28.40;97.50
79694;DHT22;69165;52.714;13.200;2023-07-09T08:51:28;28.60;97.50
79694;DHT22;69165;52.714;13.200;2023-07-09T08:53:33;28.90;97.10
79694;DHT22;69165;52.714;13.200;2023-07-09T08:55:32;28.80;97.00
79694;DHT22;69165;52.714;13.200;2023-07-09T08:57:37;28.90;96.60
79694;DHT22;69165;52.714;13.200;2023-07-09T08:59:36;29.10;97.60
79694;DHT22;69165;52.714;13.200;2023-07-09T09:01:38;29.20;96.30
79694;DHT22;69165;52.714;13.200;2023-07-09T09:03:42;29.40;96.80
79694;DHT22;69165;52.714;13.200;2023-07-09T09:05:43;29.40;96.80
79694;DHT22;69165;52.714;13.200;2023-07-09T09:07:44;29.40;96.20
79694;DHT22;69165;52.714;13.200;2023-07-09T09:09:51;29.30;95.90
79694;DHT22;69165;52.714;13.200;2023-07-09T09:11:53;29.30;95.90
79694;DHT22;69165;52.714;13.200;2023-07-09T09:13:54;29.20;95.50
79694;DHT22;69165;52.714;13.200;2023-07-09T09:15:54;29.30;95.20
79694;DHT22;69165;52.714;13.200;2023-07-09T09:17:57;29.40;95.40
79694;DHT22;69165;52.714;13.200;2023-07-09T09:19:59;29.40;95.40
79694;DHT22;69165;52.714;13.200;2023-07-09T09:22:01;29.50;94.90
79694;DHT22;69165;52.714;13.200;2023-07-09T09:26:21;29.70;95.40
79694;DHT22;69165;52.714;13.200;2023-07-09T09:28:10;29.80;94.90
79694;DHT22;69165;52.714;13.200;2023-07-09T09:30:13;29.90;95.00
79694;DHT22;69165;52.714;13.200;2023-07-09T09:32:25;30.20;94.30
79694;DHT22;69165;52.714;13.200;2023-07-09T09:34:28;30.30;94.40
79694;DHT22;69165;52.714;13.200;2023-07-09T09:36:28;30.20;94.30
79694;DHT22;69165;52.714;13.200;2023-07-09T09:38:30;30.40;94.10
79694;DHT22;69165;52.714;13.200;2023-07-09T09:40:33;30.50;93.90
79694;DHT22;69165;52.714;13.200;2023-07-09T09:42:32;30.40;94.00
79694;DHT22;69165;52.714;13.200;2023-07-09T09:44:34;30.50;93.30
79694;DHT22;69165;52.714;13.200;2023-07-09T09:46:36;30.50;93.60
79694;DHT22;69165;52.714;13.200;2023-07-09T09:48:37;30.40;93.20
79694;DHT22;69165;52.714;13.200;2023-07-09T09:50:40;30.50;92.70
79694;DHT22;69165;52.714;13.200;2023-07-09T09:52:40;30.50;92.70
79694;DHT22;69165;52.714;13.200;2023-07-09T09:54:46;30.50;92.50
79694;DHT22;69165;52.714;13.200;2023-07-09T09:56:43;30.40;93.10
79694;DHT22;69165;52.714;13.200;2023-07-09T09:58:44;30.50;92.60
79694;DHT22;69165;52.714;13.200;2023-07-09T10:00:47;30.50;92.40
79694;DHT22;69165;52.714;13.200;2023-07-09T10:02:47;30.50;92.60
79694;DHT22;69165;52.714;13.200;2023-07-09T10:04:49;30.50;92.00
79694;DHT22;69165;52.714;13.200;2023-07-09T10:06:54;30.50;92.90
79694;DHT22;69165;52.714;13.200;2023-07-09T10:08:56;30.90;92.90
79694;DHT22;69165;52.714;13.200;2023-07-09T10:11:10;31.00;91.90
79694;DHT22;69165;52.714;13.200;2023-07-09T10:12:59;31.00;91.90
79694;DHT22;69165;52.714;13.200;2023-07-09T10:15:00;31.10;91.90
79694;DHT22;69165;52.714;13.200;2023-07-09T10:17:04;31.10;91.30
79694;DHT22;69165;52.714;13.200;2023-07-09T10:19:09;30.90;91.10
79694;DHT22;69165;52.714;13.200;2023-07-09T10:21:14;30.80;91.80
79694;DHT22;69165;52.714;13.200;2023-07-09T10:23:17;30.80;91.80
79694;DHT22;69165;52.714;13.200;2023-07-09T10:25:16;30.90;91.80
79694;DHT22;69165;52.714;13.200;2023-07-09T10:27:16;30.90;91.50
79694;DHT22;69165;52.714;13.200;2023-07-09T10:29:22;30.70;90.90
79694;DHT22;69165;52.714;13.200;2023-07-09T10:31:28;30.60;91.30
79694;DHT22;69165;52.714;13.200;2023-07-09T10:33:26;30.50;91.20
79694;DHT22;69165;52.714;13.200;2023-07-09T10:35:30;30.60;91.20
79694;DHT22;69165;52.714;13.200;2023-07-09T10:37:37;30.50;90.40
79694;DHT22;69165;52.714;13.200;2023-07-09T10:39:32;30.60;91.80
79694;DHT22;69165;52.714;13.200;2023-07-09T10:41:33;30.60;90.70
79694;DHT22;69165;52.714;13.200;2023-07-09T10:43:37;30.70;90.30
79694;DHT22;69165;52.714;13.200;2023-07-09T10:45:40;30.70;90.90
79694;DHT22;69165;52.714;13.200;2023-07-09T10:47:43;30.80;90.00
79694;DHT22;69165;52.714;13.200;2023-07-09T10:49:43;30.80;90.00
79694;DHT22;69165;52.714;13.200;2023-07-09T10:51:49;30.80;90.10
79694;DHT22;69165;52.714;13.200;2023-07-09T10:53:51;30.80;90.10
79694;DHT22;69165;52.714;13.200;2023-07-09T10:55:52;30.80;90.10
79694;DHT22;69165;52.714;13.200;2023-07-09T10:57:54;30.90;91.00
79694;DHT22;69165;52.714;13.200;2023-07-09T10:59:53;31.00;89.30
79694;DHT22;69165;52.714;13.200;2023-07-09T11:01:57;31.00;88.60
79694;DHT22;69165;52.714;13.200;2023-07-09T11:03:57;31.00;89.30
79694;DHT22;69165;52.714;13.200;2023-07-09T11:05:58;30.90;87.70
79694;DHT22;69165;52.714;13.200;2023-07-09T11:08:00;30.90;87.70
79694;DHT22;69165;52.714;13.200;2023-07-09T11:10:02;31.00;88.60
79694;DHT22;69165;52.714;13.200;2023-07-09T11:12:06;30.90;88.40
79694;DHT22;69165;52.714;13.200;2023-07-09T11:14:09;31.00;90.60
79694;DHT22;69165;52.714;13.200;2023-07-09T11:16:07;31.10;90.20
79694;DHT22;69165;52.714;13.200;2023-07-09T11:18:11;31.20;90.00
79694;DHT22;69165;52.714;13.200;2023-07-09T11:20:17;31.20;89.30
79694;DHT22;69165;52.714;13.200;2023-07-09T11:22:21;31.10;87.20
79694;DHT22;69165;52.714;13.200;2023-07-09T11:24:27;31.10;87.20
79694;DHT22;69165;52.714;13.200;2023-07-09T11:26:27;31.00;87.30
79694;DHT22;69165;52.714;13.200;2023-07-09T11:32:45;31.20;90.20
79694;DHT22;69165;52.714;13.200;2023-07-09T11:34:45;31.30;89.20
79694;DHT22;69165;52.714;13.200;2023-07-09T11:36:52;31.30;88.90
79694;DHT22;69165;52.714;13.200;2023-07-09T11:38:51;31.30;86.20
79694;DHT22;69165;52.714;13.200;2023-07-09T11:40:53;31.30;88.40
79694;DHT22;69165;52.714;13.200;2023-07-09T11:42:54;31.30;87.40
79694;DHT22;69165;52.714;13.200;2023-07-09T11:45:01;31.40;89.40
79694;DHT22;69165;52.714;13.200;2023-07-09T11:47:12;31.60;87.20
79694;DHT22;69165;52.714;13.200;2023-07-09T11:49:06;31.60;87.50
79694;DHT22;69165;52.714;13.200;2023-07-09T11:51:16;31.60;86.80
79694;DHT22;69165;52.714;13.200;2023-07-09T11:53:20;31.70;88.40
79694;DHT22;69165;52.714;13.200;2023-07-09T11:55:28;31.70;86.00
79694;DHT22;69165;52.714;13.200;2023-07-09T11:57:30;31.80;85.40
79694;DHT22;69165;52.714;13.200;2023-07-09T11:59:37;31.90;84.60
79694;DHT22;69165;52.714;13.200;2023-07-09T12:01:47;32.00;84.20
79694;DHT22;69165;52.714;13.200;2023-07-09T12:03:49;32.00;84.00
79694;DHT22;69165;52.714;13.200;2023-07-09T12:05:51;32.10;85.90
79694;DHT22;69165;52.714;13.200;2023-07-09T12:07:52;32.20;85.60
79694;DHT22;69165;52.714;13.200;2023-07-09T12:09:53;32.20;85.40
79694;DHT22;69165;52.714;13.200;2023-07-09T12:11:54;32.40;84.70
79694;DHT22;69165;52.714;13.200;2023-07-09T12:14:01;32.40;85.70
79694;DHT22;69165;52.714;13.200;2023-07-09T12:16:01;32.40;84.80
79694;DHT22;69165;52.714;13.200;2023-07-09T12:18:08;32.50;85.20
79694;DHT22;69165;52.714;13.200;2023-07-09T12:20:05;32.40;85.10
79694;DHT22;69165;52.714;13.200;2023-07-09T12:22:10;32.40;82.90
79694;DHT22;69165;52.714;13.200;2023-07-09T12:24:20;32.40;82.90
79694;DHT22;69165;52.714;13.200;2023-07-09T12:26:21;32.40;82.00
79694;DHT22;69165;52.714;13.200;2023-07-09T12:28:22;32.40;82.20
79694;DHT22;69165;52.714;13.200;2023-07-09T12:30:24;32.40;81.40
79694;DHT22;69165;52.714;13.200;2023-07-09T12:32:25;32.40;82.20
79694;DHT22;69165;52.714;13.200;2023-07-09T12:34:30;32.40;81.00
79694;DHT22;69165;52.714;13.200;2023-07-09T12:36:28;32.40;80.90
79694;DHT22;69165;52.714;13.200;2023-07-09T12:38:30;32.50;80.80
79694;DHT22;69165;52.714;13.200;2023-07-09T12:40:31;32.60;80.20
79694;DHT22;69165;52.714;13.200;2023-07-09T12:42:33;32.70;80.20
79694;DHT22;69165;52.714;13.200;2023-07-09T12:44:35;32.70;84.30
79694;DHT22;69165;52.714;13.200;2023-07-09T12:46:36;32.70;83.90
79694;DHT22;69165;52.714;13.200;2023-07-09T12:48:37;32.70;80.00
79694;DHT22;69165;52.714;13.200;2023-07-09T12:50:39;32.60;80.70
79694;DHT22;69165;52.714;13.200;2023-07-09T12:52:44;32.50;79.70
79694;DHT22;69165;52.714;13.200;2023-07-09T12:54:41;32.40;81.10
79694;DHT22;69165;52.714;13.200;2023-07-09T12:56:42;32.40;81.00
79694;DHT22;69165;52.714;13.200;2023-07-09T12:58:44;32.30;80.80
79694;DHT22;69165;52.714;13.200;2023-07-09T13:00:52;32.30;80.20
79694;DHT22;69165;52.714;13.200;2023-07-09T13:02:54;32.30;80.20
79694;DHT22;69165;52.714;13.200;2023-07-09T13:05:01;32.30;79.90
79694;DHT22;69165;52.714;13.200;2023-07-09T13:07:02;32.30;80.60
79694;DHT22;69165;52.714;13.200;2023-07-09T13:09:09;32.40;79.80
79694;DHT22;69165;52.714;13.200;2023-07-09T13:11:13;32.50;80.90
79694;DHT22;69165;52.714;13.200;2023-07-09T13:13:05;32.70;80.60
79694;DHT22;69165;52.714;13.200;2023-07-09T13:15:18;32.80;80.50
79694;DHT22;69165;52.714;13.200;2023-07-09T13:17:09;32.70;79.90
79694;DHT22;69165;52.714;13.200;2023-07-09T13:19:10;32.70;79.80
79694;DHT22;69165;52.714;13.200;2023-07-09T13:21:14;32.60;80.90
79694;DHT22;69165;52.714;13.200;2023-07-09T13:23:14;32.50;80.40
79694;DHT22;69165;52.714;13.200;2023-07-09T13:25:14;32.40;81.00
79694;DHT22;69165;52.714;13.200;2023-07-09T13:27:16;32.30;80.90
79694;DHT22;69165;52.714;13.200;2023-07-09T13:29:18;32.20;79.50
79694;DHT22;69165;52.714;13.200;2023-07-09T13:31:19;32.10;78.40
79694;DHT22;69165;52.714;13.200;2023-07-09T13:33:20;32.00;80.70
79694;DHT22;69165;52.714;13.200;2023-07-09T13:35:21;32.00;80.80
79694;DHT22;69165;52.714;13.200;2023-07-09T13:37:23;32.00;79.10
79694;DHT22;69165;52.714;13.200;2023-07-09T13:39:24;32.00;81.80
79694;DHT22;69165;52.714;13.200;2023-07-09T13:41:26;32.00;79.00
79694;DHT22;69165;52.714;13.200;2023-07-09T13:43:28;32.00;78.90
79694;DHT22;69165;52.714;13.200;2023-07-09T13:45:29;32.10;79.10
79694;DHT22;69165;52.714;13.200;2023-07-09T13:47:30;32.10;79.70
79694;DHT22;69165;52.714;13.200;2023-07-09T13:49:31;32.10;79.50
79694;DHT22;69165;52.714;13.200;2023-07-09T13:51:32;32.20;80.10
79694;DHT22;69165;52.714;13.200;2023-07-09T13:53:34;32.20;79.90
79694;DHT22;69165;52.714;13.200;2023-07-09T13:55:35;32.30;79.70
79694;DHT22;69165;52.714;13.200;2023-07-09T13:57:36;32.30;78.60
79694;DHT22;69165;52.714;13.200;2023-07-09T13:59:38;32.40;79.20
79694;DHT22;69165;52.714;13.200;2023-07-09T14:01:39;32.40;79.10
79694;DHT22;69165;52.714;13.200;2023-07-09T14:03:41;32.50;78.60
79694;DHT22;69165;52.714;13.200;2023-07-09T14:05:43;32.60;78.60
79694;DHT22;69165;52.714;13.200;2023-07-09T14:07:44;32.60;78.50
79694;DHT22;69165;52.714;13.200;2023-07-09T14:09:45;32.60;80.00
79694;DHT22;69165;52.714;13.200;2023-07-09T14:11:48;32.60;78.20
79694;DHT22;69165;52.714;13.200;2023-07-09T14:13:49;32.60;79.40
79694;DHT22;69165;52.714;13.200;2023-07-09T14:15:51;32.50;76.90
79694;DHT22;69165;52.714;13.200;2023-07-09T14:17:53;32.50;76.90
79694;DHT22;69165;52.714;13.200;2023-07-09T14:19:54;32.40;78.10
79694;DHT22;69165;52.714;13.200;2023-07-09T14:21:55;32.40;77.80
79694;DHT22;69165;52.714;13.200;2023-07-09T14:23:56;32.30;78.20
79694;DHT22;69165;52.714;13.200;2023-07-09T14:25:58;32.30;77.30
79694;DHT22;69165;52.714;13.200;2023-07-09T14:27:59;32.30;77.10
79694;DHT22;69165;52.714;13.200;2023-07-09T14:30:00;32.30;79.40
79694;DHT22;69165;52.714;13.200;2023-07-09T14:32:02;32.30;77.20
79694;DHT22;69165;52.714;13.200;2023-07-09T14:34:14;32.40;77.90
79694;DHT22;69165;52.714;13.200;2023-07-09T14:36:06;32.40;78.70
79694;DHT22;69165;52.714;13.200;2023-07-09T14:38:14;32.40;76.10
79694;DHT22;69165;52.714;13.200;2023-07-09T14:40:10;32.40;77.90
79694;DHT22;69165;52.714;13.200;2023-07-09T14:42:12;32.30;75.90
79694;DHT22;69165;52.714;13.200;2023-07-09T14:44:19;32.30;77.10
79694;DHT22;69165;52.714;13.200;2023-07-09T14:46:17;32.30;77.90
79694;DHT22;69165;52.714;13.200;2023-07-09T14:48:19;32.30;77.40
79694;DHT22;69165;52.714;13.200;2023-07-09T14:50:22;32.30;78.10
79694;DHT22;69165;52.714;13.200;2023-07-09T14:52:22;32.30;78.10
79694;DHT22;69165;52.714;13.200;2023-07-09T14:54:26;32.30;79.50
79694;DHT22;69165;52.714;13.200;2023-07-09T14:56:25;32.40;79.90
79694;DHT22;69165;52.714;13.200;2023-07-09T14:58:27;32.40;78.80
79694;DHT22;69165;52.714;13.200;2023-07-09T15:00:28;32.40;78.70
79694;DHT22;69165;52.714;13.200;2023-07-09T15:02:32;32.40;79.50
79694;DHT22;69165;52.714;13.200;2023-07-09T15:04:32;32.50;80.40
79694;DHT22;69165;52.714;13.200;2023-07-09T15:06:34;32.50;81.20
79694;DHT22;69165;52.714;13.200;2023-07-09T15:08:35;32.60;79.80
79694;DHT22;69165;52.714;13.200;2023-07-09T15:10:36;32.50;78.40
79694;DHT22;69165;52.714;13.200;2023-07-09T15:12:37;32.50;79.20
79694;DHT22;69165;52.714;13.200;2023-07-09T15:14:39;32.50;79.40
79694;DHT22;69165;52.714;13.200;2023-07-09T15:16:40;32.50;78.60
79694;DHT22;69165;52.714;13.200;2023-07-09T15:18:41;32.40;77.30
79694;DHT22;69165;52.714;13.200;2023-07-09T15:20:51;32.40;77.90
79694;DHT22;69165;52.714;13.200;2023-07-09T15:22:52;32.20;78.10
79694;DHT22;69165;52.714;13.200;2023-07-09T15:24:53;32.20;77.50
79694;DHT22;69165;52.714;13.200;2023-07-09T15:26:54;32.20;75.70
79694;DHT22;69165;52.714;13.200;2023-07-09T15:28:55;32.10;76.90
79694;DHT22;69165;52.714;13.200;2023-07-09T15:30:57;32.10;76.20
79694;DHT22;69165;52.714;13.200;2023-07-09T15:32:59;32.00;78.30
79694;DHT22;69165;52.714;13.200;2023-07-09T15:34:59;32.10;78.60
79694;DHT22;69165;52.714;13.200;2023-07-09T15:37:00;32.10;77.20
79694;DHT22;69165;52.714;13.200;2023-07-09T15:39:02;32.00;76.70
79694;DHT22;69165;52.714;13.200;2023-07-09T15:41:04;31.90;76.60
79694;DHT22;69165;52.714;13.200;2023-07-09T15:43:05;32.00;76.10
79694;DHT22;69165;52.714;13.200;2023-07-09T15:45:07;32.00;77.00
79694;DHT22;69165;52.714;13.200;2023-07-09T15:47:15;31.90;78.80
79694;DHT22;69165;52.714;13.200;2023-07-09T15:49:11;31.90;76.20
79694;DHT22;69165;52.714;13.200;2023-07-09T15:51:13;32.00;75.20
79694;DHT22;69165;52.714;13.200;2023-07-09T15:53:15;32.00;75.40
79694;DHT22;69165;52.714;13.200;2023-07-09T15:55:19;32.00;76.40
79694;DHT22;69165;52.714;13.200;2023-07-09T15:57:19;32.00;76.30
79694;DHT22;69165;52.714;13.200;2023-07-09T15:59:25;31.90;76.30
79694;DHT22;69165;52.714;13.200;2023-07-09T16:01:25;31.80;77.70
79694;DHT22;69165;52.714;13.200;2023-07-09T16:03:26;31.80;78.50
79694;DHT22;69165;52.714;13.200;2023-07-09T16:05:29;31.70;80.90
79694;DHT22;69165;52.714;13.200;2023-07-09T16:07:29;31.70;80.00
79694;DHT22;69165;52.714;13.200;2023-07-09T16:11:31;31.60;78.70
79694;DHT22;69165;52.714;13.200;2023-07-09T16:13:33;31.60;78.40
79694;DHT22;69165;52.714;13.200;2023-07-09T16:15:34;31.50;76.30
79694;DHT22;69165;52.714;13.200;2023-07-09T16:17:35;31.50;79.90
79694;DHT22;69165;52.714;13.200;2023-07-09T16:19:36;31.50;79.80
79694;DHT22;69165;52.714;13.200;2023-07-09T16:21:39;31.40;79.70
79694;DHT22;69165;52.714;13.200;2023-07-09T16:23:40;31.40;79.70
79694;DHT22;69165;52.714;13.200;2023-07-09T16:25:41;31.30;79.30
79694;DHT22;69165;52.714;13.200;2023-07-09T16:27:43;31.20;79.20
79694;DHT22;69165;52.714;13.200;2023-07-09T16:29:44;31.10;79.00
79694;DHT22;69165;52.714;13.200;2023-07-09T16:31:46;31.10;79.00
79694;DHT22;69165;52.714;13.200;2023-07-09T16:33:47;31.00;79.40
79694;DHT22;69165;52.714;13.200;2023-07-09T16:35:49;31.00;79.40
79694;DHT22;69165;52.714;13.200;2023-07-09T16:37:50;31.00;79.40
79694;DHT22;69165;52.714;13.200;2023-07-09T16:39:52;31.00;80.50
79694;DHT22;69165;52.714;13.200;2023-07-09T16:41:54;31.10;80.60
79694;DHT22;69165;52.714;13.200;2023-07-09T16:43:55;31.00;81.20
79694;DHT22;69165;52.714;13.200;2023-07-09T16:45:56;31.00;82.60
79694;DHT22;69165;52.714;13.200;2023-07-09T16:47:58;30.80;82.60
79694;DHT22;69165;52.714;13.200;2023-07-09T16:50:00;30.80;82.60
79694;DHT22;69165;52.714;13.200;2023-07-09T16:52:01;30.70;82.10
79694;DHT22;69165;52.714;13.200;2023-07-09T16:54:07;30.70;83.60
79694;DHT22;69165;52.714;13.200;2023-07-09T16:56:04;30.50;83.50
79694;DHT22;69165;52.714;13.200;2023-07-09T16:58:07;30.50;83.50
79694;DHT22;69165;52.714;13.200;2023-07-09T17:00:28;30.50;83.50
79694;DHT22;69165;52.714;13.200;2023-07-09T17:02:28;30.50;83.60
79694;DHT22;69165;52.714;13.200;2023-07-09T17:04:29;30.30;83.30
79694;DHT22;69165;52.714;13.200;2023-07-09T17:06:31;30.20;81.10
79694;DHT22;69165;52.714;13.200;2023-07-09T17:08:32;30.20;81.00
79694;DHT22;69165;52.714;13.200;2023-07-09T17:10:33;30.20;84.10
79694;DHT22;69165;52.714;13.200;2023-07-09T17:12:35;30.10;83.10
79694;DHT22;69165;52.714;13.200;2023-07-09T17:14:37;30.00;81.80
79694;DHT22;69165;52.714;13.200;2023-07-09T17:16:38;30.00;81.80
79694;DHT22;69165;52.714;13.200;2023-07-09T17:18:39;30.00;81.70
79694;DHT22;69165;52.714;13.200;2023-07-09T17:20:40;29.90;82.30
79694;DHT22;69165;52.714;13.200;2023-07-09T17:22:43;29.80;82.80
79694;DHT22;69165;52.714;13.200;2023-07-09T17:24:44;29.80;82.70
79694;DHT22;69165;52.714;13.200;2023-07-09T17:26:45;29.80;83.60
79694;DHT22;69165;52.714;13.200;2023-07-09T17:28:46;29.70;83.50
79694;DHT22;69165;52.714;13.200;2023-07-09T17:30:48;29.60;84.00
79694;DHT22;69165;52.714;13.200;2023-07-09T17:32:49;29.60;84.00
79694;DHT22;69165;52.714;13.200;2023-07-09T17:34:50;29.50;84.50
79694;DHT22;69165;52.714;13.200;2023-07-09T17:36:52;29.40;84.10
79694;DHT22;69165;52.714;13.200;2023-07-09T17:38:53;29.40;84.10
79694;DHT22;69165;52.714;13.200;2023-07-09T17:40:54;29.30;83.90
79694;DHT22;69165;52.714;13.200;2023-07-09T17:42:56;29.30;84.20
79694;DHT22;69165;52.714;13.200;2023-07-09T17:44:58;29.20;83.70
79694;DHT22;69165;52.714;13.200;2023-07-09T17:46:59;29.20;83.70
79694;DHT22;69165;52.714;13.200;2023-07-09T17:49:00;29.10;83.40